Авиационная погода в Трабзоне

Регион: 
Погода METAR: 
LTCG 241650Z 24003KT 200V280 9999 SCT016 17/13 Q1020 NOSIG RMK RWY29 23004KT 150V260
Время наблюдения
2021-10-24T16:50:00Z
Температура C
17.0
Точка росы
13.0
Направление ветра
240
Скорость ветра (узлы)
3
Метео видимость
6.21
Явления погоды
Условия полета
VFR